• Join FlightAware (Why Join?)
  • Login
  • US Flag 
06:40PM EDT


 

Airport Tracker/Info


-or-


 

Live Flight TrackerFlight Track Log ✈ SKW4530 ✈ 20-Dec-2013 ✈ KLAX - KLAS

Flight Track Log - Related Links

Times and Time Zones

All times are in EST time to prevent confusion due to time zone crossing. See the SKW4530 flight status page for this flight to view local times or setup timezone preferences in your user account.

Time Position Orientation Groundspeed Altitude Reporting Facility
EST Latitude Longitude Course Direction KTS MPH feet Rate Location/Type
10:02AM 33.9317 -118.4447 40° Northeast 204 235 1,800  Level Los Angeles Center
10:03AM 33.8833 -118.5086 228° Southwest 268 308 4,100 2,760 Climbing Los Angeles Center
10:04AM 33.6665 -118.4162 116° Southeast  Level FlightAware Approximate
10:04AM 33.8092 -118.5197 187° South 288 331 7,500  Level Los Angeles Center
10:05AM 33.6333 -118.3063 90° East  Level FlightAware Approximate
10:05AM 33.7097 -118.5103 175° South 313 360 10,600  Level Los Angeles Center
10:06AM 33.6333 -118.1873 90° East  Level FlightAware Approximate
10:06AM 33.6758 -118.4178 114° Southeast 319 367 12,700  Level Los Angeles Center
10:07AM 33.7018 -118.1148 40° Northeast  Level FlightAware Approximate
10:07AM 33.7008 -118.3186 73° East 319 367 15,000  Level Los Angeles Center
10:08AM 33.7319 -118.2194 69° East 326 375 17,900 2,520 Climbing Los Angeles Center
10:09AM 33.7697 -118.0972 70° East 327 376 20,200 2,400 Climbing Los Angeles Center
10:10AM 33.8253 -118.0175 50° Northeast 314 361 22,900 2,640 Climbing Los Angeles Center
10:11AM 33.8922 -117.9558 37° Northeast 306 352 25,700 1,980 Climbing Los Angeles Center
10:12AM 33.9519 -117.9019 37° Northeast 276 318 27,000 600 Climbing Los Angeles Center
10:13AM 34.0119 -117.8481 37° Northeast 271 312 27,000  Level Los Angeles Center
10:14AM 34.0711 -117.7942 37° Northeast 269 310 27,000  Level Los Angeles Center
10:15AM 34.1358 -117.7150 45° Northeast 278 320 27,000  Level Los Angeles Center
10:16AM 34.1881 -117.6428 49° Northeast 285 328 27,000  Level Los Angeles Center
10:17AM 34.2403 -117.5714 48° Northeast 285 328 27,000  Level Los Angeles Center
10:18AM 34.2933 -117.5008 48° Northeast 284 327 27,000  Level Los Angeles Center
10:19AM 34.3447 -117.4297 49° Northeast 282 325 27,000  Level Los Angeles Center
10:20AM 34.3997 -117.3556 48° Northeast 284 327 27,000  Level Los Angeles Center
10:21AM 34.4558 -117.2781 49° Northeast 301 346 27,000  Level Los Angeles Center
10:22AM 34.5153 -117.1950 49° Northeast 321 369 27,000  Level Los Angeles Center
10:23AM 34.5756 -117.1119 49° Northeast 327 376 27,000  Level Los Angeles Center
10:25AM 34.6478 -117.0133 48° Northeast 327 376 27,000  Level Los Angeles Center
10:26AM 34.7067 -116.9306 49° Northeast 326 375 27,000  Level Los Angeles Center
10:27AM 34.7658 -116.8483 49° Northeast 324 373 27,000 -60 Level Los Angeles Center
10:28AM 34.8253 -116.7678 48° Northeast 322 371 26,900 -660 Descending Los Angeles Center
10:29AM 34.8828 -116.6858 49° Northeast 320 368 25,700 -1,200 Descending Los Angeles Center
10:30AM 34.9419 -116.6036 49° Northeast 322 371 24,500 -840 Descending Los Angeles Center
10:31AM 35.0161 -116.5069 47° Northeast 326 375 24,000 -300 Descending Los Angeles Center
10:32AM 35.0811 -116.4272 45° Northeast 330 380 24,000  Level Los Angeles Center
10:33AM 35.1433 -116.3486 46° Northeast 325 374 24,000  Level Los Angeles Center
10:34AM 35.2069 -116.2711 45° Northeast 324 373 24,000  Level Los Angeles Center
10:35AM 35.2697 -116.1911 46° Northeast 328 377 24,000  Level Los Angeles Center
10:36AM 35.3328 -116.1108 46° Northeast 330 380 24,000 -120 Level Los Angeles Center
10:37AM 35.4081 -116.0147 46° Northeast 326 375 23,800 -1,500 Descending Los Angeles Center
10:38AM 35.4714 -115.9375 45° Northeast 322 371 21,000 -2,820 Descending Los Angeles Center
10:38AM 35.4961 -115.9144 37° Northeast 339 390 20,100 -3,000 Descending Los Angeles Center
10:39AM 35.5403 -115.8478 51° Northeast 330 380 17,900 -2,940 Descending Los Angeles Center
10:40AM 35.5789 -115.8064 41° Northeast 328 377 16,200 -2,760 Descending Los Angeles Center
10:40AM 35.6042 -115.7686 51° Northeast 328 377 15,100 -2,340 Descending Los Angeles Center
10:41AM 35.6364 -115.7219 50° Northeast 332 382 13,900 -1,680 Descending Los Angeles Center
10:41AM 35.6500 -115.6767 70° East 320 368 13,400 -1,380 Descending Los Angeles Center
10:42AM 35.6719 -115.6261 62° Northeast 303 349 12,500 -1,620 Descending Los Angeles Center
10:42AM 35.6867 -115.5892 64° Northeast 296 341 11,800 -1,980 Descending Los Angeles Center
10:43AM 35.7111 -115.5367 60° Northeast 284 327 10,500 -1,680 Descending Los Angeles Center
10:43AM 35.7275 -115.4964 63° Northeast 285 328 10,100 -600 Descending Los Angeles Center
10:43AM 35.7431 -115.4656 58° Northeast 271 312 10,000 -420 Descending Los Angeles Center
10:44AM 35.7622 -115.4233 61° Northeast 246 283 9,700 -1,200 Descending Los Angeles Center
10:45AM 35.7783 -115.3878 61° Northeast 232 267 8,700 -1,860 Descending Los Angeles Center
10:45AM 35.7944 -115.3492 63° Northeast 230 265 7,800 -1,380 Descending Los Angeles Center
10:46AM 35.8119 -115.3239 50° Northeast 213 245 7,300 -780 Descending Los Angeles Center
10:46AM 35.8367 -115.3072 29° Northeast 199 229 7,000 -300 Descending Los Angeles Center
10:47AM 35.8617 -115.2944 22° Northeast 195 224 7,000 -240 Level Los Angeles Center
10:47AM 35.8897 -115.2767 27° Northeast 195 224 6,800 -480 Descending Los Angeles Center
10:48AM 35.9039 -115.2700 21° North 178 205 6,600 -780 Descending Los Angeles Center
10:48AM 35.9325 -115.2517 27° Northeast 172 198 6,000 -960 Descending Los Angeles Center
10:49AM 35.9631 -115.2347 24° Northeast 181 208 5,300 -1,020 Descending Los Angeles Center
10:49AM 35.9758 -115.2264 28° Northeast 171 197 5,000 -1,140 Descending Los Angeles Center
10:50AM 35.9883 -115.2211 19° North 168 193 4,600 -1,200 Descending Los Angeles Center
10:50AM 36.0144 -115.2036 28° Northeast 149 171 3,800 -1,020 Descending Los Angeles Center
10:51AM 36.0283 -115.1972 20° North 129 148 3,400 -840 Descending Los Angeles Center
10:51AM 36.0461 -115.1864 26° Northeast 130 150 3,000 -780 Descending Los Angeles Center
10:52AM 36.0631 -115.1778 22° Northeast 123 142 2,600 -780 Descending Los Angeles Center
10:52AM 36.0769 -115.1683 29° Northeast 123 142 2,200 -900 Descending Los Angeles Center